createdAt,value
2022-10-05T00:00:49.866Z,67.90
2022-10-05T00:03:16.553Z,68.13
2022-10-05T00:05:45.707Z,68.03
2022-10-05T00:08:18.440Z,67.65
2022-10-05T00:10:46.448Z,68.09
2022-10-05T00:13:16.114Z,68.24
2022-10-05T00:15:44.045Z,68.31
2022-10-05T00:18:20.285Z,68.17
2022-10-05T00:20:48.080Z,68.52
2022-10-05T00:23:24.907Z,68.34
2022-10-05T00:25:51.824Z,68.42
2022-10-05T00:28:25.524Z,68.23
2022-10-05T00:30:55.955Z,68.21
2022-10-05T00:33:22.628Z,68.37
2022-10-05T00:35:49.511Z,68.66
2022-10-05T00:38:15.992Z,68.59
2022-10-05T00:40:51.230Z,68.30
2022-10-05T00:43:37.624Z,68.49
2022-10-05T00:46:18.531Z,68.75
2022-10-05T00:49:09.964Z,68.55
2022-10-05T00:51:39.048Z,68.92
2022-10-05T00:54:24.397Z,69.16
2022-10-05T00:57:08.956Z,69.07
2022-10-05T01:00:02.526Z,68.86
2022-10-05T01:02:36.510Z,69.19
2022-10-05T01:10:49.023Z,69.04
2022-10-05T01:13:32.281Z,68.95
2022-10-05T01:16:15.333Z,69.20
2022-10-05T01:19:20.171Z,68.89
2022-10-05T01:21:57.052Z,69.01
2022-10-05T01:24:50.411Z,68.79
2022-10-05T01:28:30.928Z,68.63
2022-10-05T01:31:12.239Z,68.79
2022-10-05T01:34:01.943Z,68.92
2022-10-05T01:36:46.202Z,68.33
2022-10-05T01:40:01.552Z,68.13
2022-10-05T01:42:37.620Z,68.77
2022-10-05T01:45:26.072Z,67.82
2022-10-05T01:48:08.768Z,68.22
2022-10-05T01:50:53.845Z,68.15
2022-10-05T01:53:57.135Z,68.52
2022-10-05T01:56:43.634Z,68.16
2022-10-05T01:59:23.449Z,68.59
2022-10-05T02:02:00.250Z,68.35
2022-10-05T02:07:33.309Z,68.88
2022-10-05T02:10:05.497Z,68.79
2022-10-05T02:12:37.345Z,68.85
2022-10-05T02:15:14.779Z,69.05
2022-10-05T02:17:50.818Z,68.89
2022-10-05T02:20:23.979Z,69.02
2022-10-05T02:22:54.501Z,69.39
2022-10-05T02:25:30.459Z,69.18
2022-10-05T02:28:03.810Z,69.07
2022-10-05T02:30:37.868Z,69.01
2022-10-05T02:33:10.733Z,68.85
2022-10-05T02:35:37.415Z,69.13
2022-10-05T02:38:19.488Z,68.74
2022-10-05T02:41:19.407Z,68.89
2022-10-05T02:44:02.412Z,69.20
2022-10-05T02:46:38.784Z,69.25
2022-10-05T02:49:14.230Z,69.32
2022-10-05T02:51:56.554Z,69.40
2022-10-05T02:54:33.213Z,69.34
2022-10-05T02:57:07.953Z,69.30
2022-10-05T02:59:40.298Z,69.29
2022-10-05T03:02:18.746Z,69.30
2022-10-05T03:04:54.634Z,69.31
2022-10-05T03:07:28.154Z,69.56
2022-10-05T03:10:11.952Z,69.46
2022-10-05T03:12:52.727Z,69.54
2022-10-05T03:15:27.698Z,69.82
2022-10-05T03:18:22.391Z,69.90
2022-10-05T03:20:51.956Z,69.72
2022-10-05T03:23:41.179Z,69.67
2022-10-05T03:26:40.684Z,69.28
2022-10-05T03:29:20.893Z,69.60
2022-10-05T03:32:05.440Z,68.98
2022-10-05T03:34:48.807Z,69.04
2022-10-05T03:37:56.949Z,68.70
2022-10-05T03:40:50.526Z,68.62
2022-10-05T03:43:46.223Z,68.77
2022-10-05T03:46:46.263Z,68.77
2022-10-05T03:49:31.944Z,69.10
2022-10-05T03:52:07.622Z,68.84
2022-10-05T03:54:41.068Z,68.89
2022-10-05T03:57:14.784Z,69.04
2022-10-05T04:00:00.456Z,68.80
2022-10-05T04:02:33.598Z,69.16
2022-10-05T04:05:09.176Z,68.83
2022-10-05T04:07:52.015Z,69.05
2022-10-05T04:10:33.551Z,69.04
2022-10-05T04:13:11.307Z,69.32
2022-10-05T04:15:49.414Z,69.47
2022-10-05T04:18:28.828Z,69.72
2022-10-05T04:21:01.224Z,69.71
2022-10-05T04:23:39.923Z,70.04
2022-10-05T04:26:40.191Z,70.16
2022-10-05T04:29:25.507Z,70.15
2022-10-05T04:32:26.532Z,70.12
2022-10-05T04:35:00.460Z,70.11
2022-10-05T04:37:54.538Z,69.99
2022-10-05T04:40:36.187Z,70.03
2022-10-05T04:43:28.687Z,69.93
2022-10-05T04:46:01.307Z,70.12
2022-10-05T04:48:39.395Z,69.82
2022-10-05T04:51:15.077Z,70.12
2022-10-05T04:54:22.886Z,69.52
2022-10-05T04:56:55.029Z,70.03
2022-10-05T04:59:47.889Z,69.94
2022-10-05T05:02:43.411Z,69.92
2022-10-05T05:05:27.508Z,69.81
2022-10-05T05:08:04.140Z,69.75
2022-10-05T05:10:40.762Z,70.03
2022-10-05T05:13:45.352Z,69.61
2022-10-05T05:16:25.327Z,69.65
2022-10-05T05:18:52.002Z,69.95
2022-10-05T05:21:43.102Z,69.50
2022-10-05T05:24:21.150Z,69.96
2022-10-05T05:27:06.076Z,70.29
2022-10-05T05:29:57.919Z,69.84
2022-10-05T05:33:01.037Z,69.80
2022-10-05T05:35:34.198Z,70.18
2022-10-05T05:38:15.543Z,70.62
2022-10-05T05:41:10.277Z,69.77
2022-10-05T05:44:03.812Z,70.49
2022-10-05T05:47:02.441Z,70.57
2022-10-05T05:49:43.298Z,70.41
2022-10-05T05:52:18.218Z,70.66
2022-10-05T05:54:52.226Z,70.67
2022-10-05T05:57:25.403Z,70.78
2022-10-05T05:59:55.944Z,70.67
2022-10-05T06:02:29.214Z,70.79
2022-10-05T06:05:02.690Z,70.82
2022-10-05T06:07:31.200Z,71.36
2022-10-05T06:10:29.341Z,70.96
2022-10-05T06:13:17.914Z,71.55
2022-10-05T06:15:52.067Z,71.81
2022-10-05T06:18:21.684Z,72.16
2022-10-05T06:20:54.561Z,72.35
2022-10-05T06:23:31.507Z,72.00
2022-10-05T06:26:27.281Z,72.03
2022-10-05T06:29:01.947Z,72.24
2022-10-05T06:31:56.478Z,72.07
2022-10-05T06:34:48.262Z,72.27
2022-10-05T06:37:52.552Z,72.10
2022-10-05T06:40:47.645Z,72.27
2022-10-05T06:43:35.583Z,72.55
2022-10-05T06:46:31.642Z,72.49
2022-10-05T06:49:16.182Z,73.01
2022-10-05T06:52:23.115Z,72.98
2022-10-05T06:55:13.206Z,73.07
2022-10-05T06:57:59.664Z,73.63
2022-10-05T07:00:39.174Z,73.32
2022-10-05T07:03:43.031Z,73.17
2022-10-05T07:06:16.980Z,73.55
2022-10-05T07:09:07.093Z,73.38
2022-10-05T07:11:57.530Z,73.79
2022-10-05T07:15:10.768Z,73.35
2022-10-05T07:18:23.081Z,73.49
2022-10-05T07:21:09.655Z,74.22
2022-10-05T07:23:51.112Z,73.56
2022-10-05T07:26:45.578Z,73.47
2022-10-05T07:29:22.087Z,74.62
2022-10-05T07:32:22.358Z,73.22
2022-10-05T07:35:09.690Z,73.13
2022-10-05T07:37:52.842Z,73.35
2022-10-05T07:40:32.064Z,72.77
2022-10-05T07:43:13.242Z,73.09
2022-10-05T07:46:05.894Z,72.71
2022-10-05T07:48:51.066Z,72.47
2022-10-05T07:51:36.248Z,72.21
2022-10-05T07:54:12.290Z,73.60
2022-10-05T07:56:49.287Z,72.13
2022-10-05T07:59:34.172Z,70.38
2022-10-05T08:02:12.326Z,71.25
2022-10-05T08:05:09.347Z,70.74
2022-10-05T08:07:37.260Z,72.79
2022-10-05T08:10:18.631Z,71.29
2022-10-05T08:13:03.805Z,70.01
2022-10-05T08:15:55.298Z,70.22
2022-10-05T08:18:53.924Z,69.31
2022-10-05T08:21:27.536Z,70.92
2022-10-05T08:24:14.192Z,69.65
2022-10-05T08:27:20.077Z,69.35
2022-10-05T08:29:58.624Z,67.23
2022-10-05T08:32:29.786Z,70.11
2022-10-05T08:35:24.514Z,69.01
2022-10-05T08:37:51.496Z,71.63
2022-10-05T08:40:45.622Z,69.38
2022-10-05T08:43:30.631Z,71.46
2022-10-05T08:46:18.422Z,68.05
2022-10-05T08:49:09.779Z,68.89
2022-10-05T08:52:28.971Z,68.51
2022-10-05T08:55:10.824Z,66.88
2022-10-05T08:58:01.448Z,66.95
2022-10-05T09:01:15.620Z,67.01
2022-10-05T09:04:15.364Z,66.88
2022-10-05T09:07:06.781Z,66.63
2022-10-05T09:09:47.002Z,69.89
2022-10-05T09:12:51.333Z,66.94
2022-10-05T09:15:39.793Z,67.32
2022-10-05T09:18:31.459Z,64.98
2022-10-05T09:21:10.773Z,66.28
2022-10-05T09:23:42.342Z,65.69
2022-10-05T09:26:42.325Z,64.65
2022-10-05T09:29:27.365Z,67.90
2022-10-05T09:32:16.372Z,66.14
2022-10-05T09:35:01.254Z,63.71
2022-10-05T09:37:36.558Z,64.33
2022-10-05T09:40:30.649Z,61.88
2022-10-05T09:43:44.669Z,62.79
2022-10-05T09:46:32.105Z,64.63
2022-10-05T09:49:01.382Z,63.57
2022-10-05T09:52:18.649Z,63.65
2022-10-05T09:54:54.705Z,60.86
2022-10-05T09:57:30.587Z,60.18
2022-10-05T10:00:15.862Z,63.52
2022-10-05T10:03:03.625Z,56.32
2022-10-05T10:05:45.003Z,60.96
2022-10-05T10:08:29.319Z,57.59
2022-10-05T10:11:16.859Z,59.92
2022-10-05T10:13:58.470Z,57.52
2022-10-05T10:17:06.909Z,59.32
2022-10-05T10:19:54.894Z,59.17
2022-10-05T10:22:42.963Z,56.19
2022-10-05T10:25:46.921Z,59.29
2022-10-05T10:28:41.439Z,55.57
2022-10-05T10:31:35.432Z,54.03
2022-10-05T10:34:29.791Z,55.17
2022-10-05T10:37:31.828Z,54.87
2022-10-05T10:40:35.637Z,54.29
2022-10-05T10:43:26.647Z,54.84
2022-10-05T10:46:20.602Z,55.25
2022-10-05T10:48:56.681Z,55.08
2022-10-05T10:51:54.277Z,53.10
2022-10-05T10:54:56.371Z,50.84
2022-10-05T10:57:36.209Z,52.56
2022-10-05T11:00:22.917Z,51.60
2022-10-05T11:03:29.239Z,47.06
2022-10-05T11:06:19.755Z,49.01
2022-10-05T11:09:27.589Z,52.18
2022-10-05T11:12:44.739Z,52.28
2022-10-05T11:15:50.648Z,50.74
2022-10-05T11:18:30.110Z,54.13
2022-10-05T11:21:20.585Z,49.45
2022-10-05T11:24:14.636Z,50.44
2022-10-05T11:27:16.033Z,50.21
2022-10-05T11:30:19.707Z,49.75
2022-10-05T11:33:16.207Z,51.25
2022-10-05T11:35:57.867Z,49.71
2022-10-05T11:38:27.337Z,52.73
2022-10-05T11:41:06.244Z,49.52
2022-10-05T11:43:38.548Z,48.16
2022-10-05T11:46:29.882Z,46.86
2022-10-05T11:49:09.301Z,48.34
2022-10-05T11:51:56.465Z,47.46
2022-10-05T11:55:15.917Z,48.58
2022-10-05T11:57:54.528Z,49.10
2022-10-05T12:00:24.159Z,50.74
2022-10-05T12:03:12.458Z,47.76
2022-10-05T12:05:41.788Z,50.26
2022-10-05T12:08:28.563Z,48.58
2022-10-05T12:11:01.056Z,48.24
2022-10-05T12:13:27.554Z,50.95
2022-10-05T12:16:08.950Z,43.67
2022-10-05T12:18:35.496Z,50.01
2022-10-05T12:21:10.594Z,48.02
2022-10-05T12:23:50.117Z,48.44
2022-10-05T12:26:24.362Z,48.00
2022-10-05T12:28:57.606Z,49.52
2022-10-05T12:31:50.317Z,47.77
2022-10-05T12:34:29.093Z,50.84
2022-10-05T12:37:04.184Z,50.64
2022-10-05T12:39:50.932Z,45.01
2022-10-05T12:42:36.945Z,45.88
2022-10-05T12:45:50.150Z,47.93
2022-10-05T12:48:39.936Z,46.71
2022-10-05T12:51:28.457Z,46.89
2022-10-05T12:54:01.629Z,49.25
2022-10-05T12:56:35.964Z,46.68
2022-10-05T12:59:29.402Z,48.09
2022-10-05T13:02:25.258Z,47.25
2022-10-05T13:05:02.092Z,44.78
2022-10-05T13:07:40.618Z,46.63
2022-10-05T13:10:15.885Z,49.03
2022-10-05T13:13:10.353Z,44.70
2022-10-05T13:16:11.409Z,45.66
2022-10-05T13:18:52.124Z,45.40
2022-10-05T13:21:33.744Z,44.14
2022-10-05T13:24:20.662Z,45.66
2022-10-05T13:26:55.088Z,45.47
2022-10-05T13:29:40.030Z,43.42
2022-10-05T13:32:19.919Z,45.31
2022-10-05T13:34:52.660Z,48.57
2022-10-05T13:37:33.833Z,42.94
2022-10-05T13:40:15.035Z,44.29
2022-10-05T13:43:01.370Z,46.65
2022-10-05T13:45:57.411Z,45.75
2022-10-05T13:49:01.594Z,45.96
2022-10-05T13:51:38.975Z,44.62
2022-10-05T13:54:10.947Z,43.35
2022-10-05T13:56:45.550Z,44.33
2022-10-05T13:59:35.938Z,45.59
2022-10-05T14:02:08.671Z,46.53
2022-10-05T14:04:59.992Z,45.80
2022-10-05T14:07:49.711Z,46.38
2022-10-05T14:10:36.525Z,47.02
2022-10-05T14:13:19.755Z,46.88
2022-10-05T14:16:03.296Z,47.19
2022-10-05T14:18:31.434Z,50.70
2022-10-05T14:21:01.274Z,49.64
2022-10-05T14:23:27.888Z,50.18
2022-10-05T14:25:54.464Z,50.44
2022-10-05T14:28:35.516Z,50.03
2022-10-05T14:31:13.382Z,49.91
2022-10-05T14:33:40.703Z,52.32
2022-10-05T14:36:33.739Z,51.07
2022-10-05T14:39:01.369Z,53.06
2022-10-05T14:41:28.834Z,53.16
2022-10-05T14:43:55.282Z,53.37
2022-10-05T14:46:29.095Z,51.82
2022-10-05T14:49:12.648Z,51.51
2022-10-05T14:51:39.812Z,53.99
2022-10-05T14:54:25.291Z,52.83
2022-10-05T14:57:05.318Z,52.31
2022-10-05T14:59:40.504Z,53.25
2022-10-05T15:02:25.516Z,54.73
2022-10-05T15:05:02.271Z,52.92
2022-10-05T15:07:36.081Z,53.31
2022-10-05T15:10:33.259Z,53.54
2022-10-05T15:13:15.115Z,54.04
2022-10-05T15:15:54.896Z,54.17
2022-10-05T15:18:39.829Z,54.70
2022-10-05T15:21:32.781Z,54.65
2022-10-05T15:24:08.719Z,54.43
2022-10-05T15:26:54.648Z,54.65
2022-10-05T15:29:33.185Z,55.04
2022-10-05T15:32:06.188Z,56.66
2022-10-05T15:34:35.142Z,57.02
2022-10-05T15:37:20.075Z,56.86
2022-10-05T15:39:56.131Z,55.18
2022-10-05T15:42:34.605Z,56.04
2022-10-05T15:45:18.176Z,56.86
2022-10-05T15:47:51.173Z,55.68
2022-10-05T15:50:20.214Z,57.20
2022-10-05T15:52:53.873Z,56.05
2022-10-05T15:55:58.492Z,55.77
2022-10-05T15:58:43.798Z,57.26
2022-10-05T16:01:11.891Z,57.52
2022-10-05T16:03:44.474Z,56.58
2022-10-05T16:06:19.946Z,56.41
2022-10-05T16:08:58.263Z,56.36
2022-10-05T16:11:42.629Z,56.82
2022-10-05T16:14:27.872Z,56.88
2022-10-05T16:17:02.280Z,57.54
2022-10-05T16:19:42.208Z,57.91
2022-10-05T16:22:25.196Z,58.41
2022-10-05T16:25:19.887Z,58.91
2022-10-05T16:28:22.389Z,58.92
2022-10-05T16:31:08.214Z,59.84
2022-10-05T16:33:47.185Z,59.61
2022-10-05T16:36:39.404Z,59.79
2022-10-05T16:39:43.595Z,59.49
2022-10-05T16:42:36.423Z,60.47
2022-10-05T16:45:45.655Z,59.98
2022-10-05T16:48:52.933Z,60.64
2022-10-05T16:51:33.791Z,61.21
2022-10-05T16:54:20.720Z,61.06
2022-10-05T16:56:53.797Z,61.63
2022-10-05T16:59:42.789Z,61.57
2022-10-05T17:02:24.801Z,61.75
2022-10-05T17:05:00.286Z,62.28
2022-10-05T17:07:29.582Z,62.12
2022-10-05T17:10:17.561Z,62.42
2022-10-05T17:13:09.111Z,62.52
2022-10-05T17:15:56.725Z,63.04
2022-10-05T17:18:48.721Z,62.85
2022-10-05T17:21:28.563Z,62.75
2022-10-05T17:24:13.518Z,63.09
2022-10-05T17:26:56.435Z,63.48
2022-10-05T17:29:22.829Z,63.54
2022-10-05T17:32:05.918Z,63.51
2022-10-05T17:34:34.140Z,63.67
2022-10-05T17:37:32.319Z,63.54
2022-10-05T17:39:58.862Z,63.62
2022-10-05T17:42:31.512Z,63.87
2022-10-05T17:44:59.951Z,63.96
2022-10-05T17:48:00.349Z,63.94
2022-10-05T17:50:47.807Z,63.97
2022-10-05T17:53:23.464Z,64.07
2022-10-05T17:56:03.000Z,64.38
2022-10-05T17:58:29.682Z,64.45
2022-10-05T18:00:58.927Z,64.50
2022-10-05T18:03:43.064Z,64.48
2022-10-05T18:06:36.319Z,64.69
2022-10-05T18:09:15.038Z,65.02
2022-10-05T18:11:44.063Z,64.79
2022-10-05T18:14:50.391Z,64.88
2022-10-05T18:17:43.082Z,65.21
2022-10-05T18:20:12.233Z,65.40
2022-10-05T18:22:39.057Z,65.41
2022-10-05T18:25:34.865Z,65.45
2022-10-05T18:28:09.999Z,65.22
2022-10-05T18:31:10.857Z,65.42
2022-10-05T18:33:49.626Z,64.80
2022-10-05T18:36:47.981Z,65.35
2022-10-05T18:39:49.918Z,65.43
2022-10-05T18:42:27.446Z,65.50
2022-10-05T18:45:24.314Z,65.18
2022-10-05T18:47:53.712Z,65.25
2022-10-05T18:50:40.908Z,65.12
2022-10-05T18:53:41.214Z,65.52
2022-10-05T18:56:30.268Z,65.17
2022-10-05T18:59:06.014Z,65.50
2022-10-05T19:02:10.535Z,65.77
2022-10-05T19:04:42.930Z,65.74
2022-10-05T19:07:23.845Z,65.77
2022-10-05T19:10:06.821Z,66.05
2022-10-05T19:12:55.164Z,65.91
2022-10-05T19:15:37.405Z,66.45
2022-10-05T19:18:19.207Z,66.10
2022-10-05T19:21:04.089Z,66.19
2022-10-05T19:24:10.022Z,66.53
2022-10-05T19:27:01.225Z,66.53
2022-10-05T19:29:44.752Z,66.49
2022-10-05T19:32:31.582Z,66.13
2022-10-05T19:35:09.849Z,66.70
2022-10-05T19:37:51.453Z,66.55
2022-10-05T19:40:23.542Z,66.68
2022-10-05T19:43:03.617Z,66.79
2022-10-05T19:45:35.862Z,66.67
2022-10-05T19:48:27.629Z,66.65
2022-10-05T19:50:58.957Z,66.78
2022-10-05T19:53:37.200Z,66.69
2022-10-05T19:56:16.985Z,66.71
2022-10-05T19:58:43.573Z,66.79
2022-10-05T20:01:10.335Z,67.02
2022-10-05T20:03:36.887Z,66.78
2022-10-05T20:06:08.188Z,66.81
2022-10-05T20:08:40.339Z,66.81
2022-10-05T20:11:20.914Z,66.59
2022-10-05T20:14:07.296Z,66.65
2022-10-05T20:16:34.856Z,66.76
2022-10-05T20:19:05.747Z,66.53
2022-10-05T20:21:50.166Z,66.55
2022-10-05T20:24:19.793Z,66.69
2022-10-05T20:26:51.889Z,66.70
2022-10-05T20:29:18.422Z,66.87
2022-10-05T20:31:44.950Z,66.79
2022-10-05T20:34:11.502Z,66.77
2022-10-05T20:36:38.079Z,66.88
2022-10-05T20:39:04.602Z,66.92
2022-10-05T20:41:31.333Z,66.80
2022-10-05T20:43:57.809Z,66.64
2022-10-05T20:46:24.335Z,66.78
2022-10-05T20:48:50.837Z,66.89
2022-10-05T20:51:17.374Z,66.89
2022-10-05T20:53:43.898Z,66.83
2022-10-05T20:56:10.348Z,66.66
2022-10-05T20:58:36.870Z,66.43
2022-10-05T21:01:04.054Z,66.50
2022-10-05T21:03:30.578Z,66.62
2022-10-05T21:05:57.137Z,66.47
2022-10-05T21:08:23.696Z,66.41
2022-10-05T21:10:50.177Z,66.45
2022-10-05T21:13:16.687Z,66.30
2022-10-05T21:15:43.133Z,66.28
2022-10-05T21:18:09.625Z,66.35
2022-10-05T21:20:36.125Z,66.24
2022-10-05T21:23:02.681Z,66.07
2022-10-05T21:25:29.183Z,66.47
2022-10-05T21:27:55.745Z,66.36
2022-10-05T21:30:22.241Z,66.21
2022-10-05T21:32:48.814Z,66.08
2022-10-05T21:35:15.440Z,66.09
2022-10-05T21:37:41.931Z,65.92
2022-10-05T21:40:08.930Z,65.88
2022-10-05T21:42:35.551Z,65.75
2022-10-05T21:45:02.058Z,65.82
2022-10-05T21:47:28.844Z,65.56
2022-10-05T21:49:55.338Z,65.53
2022-10-05T21:52:22.156Z,65.45
2022-10-05T21:54:49.027Z,65.29
2022-10-05T21:57:15.889Z,65.26
2022-10-05T21:59:43.271Z,64.94
2022-10-05T22:02:09.735Z,65.10
2022-10-05T22:04:36.284Z,64.98
2022-10-05T22:07:13.982Z,64.02
2022-10-05T22:09:40.560Z,64.76
2022-10-05T22:12:07.028Z,64.74
2022-10-05T22:14:33.561Z,64.86
2022-10-05T22:17:00.112Z,64.86
2022-10-05T22:19:26.774Z,64.83
2022-10-05T22:21:53.595Z,64.69
2022-10-05T22:24:20.137Z,64.68
2022-10-05T22:26:49.060Z,64.44
2022-10-05T22:29:17.561Z,64.22
2022-10-05T22:31:45.532Z,64.55
2022-10-05T22:34:12.078Z,64.67
2022-10-05T22:36:38.619Z,64.70
2022-10-05T22:39:05.123Z,64.44
2022-10-05T22:41:31.593Z,64.58
2022-10-05T22:43:58.232Z,64.63
2022-10-05T22:46:24.775Z,64.50
2022-10-05T22:48:51.417Z,64.57
2022-10-05T22:51:18.008Z,64.48
2022-10-05T22:54:02.932Z,64.50
2022-10-05T22:56:47.963Z,64.52
2022-10-05T22:59:33.237Z,64.59
2022-10-05T23:02:18.370Z,64.73
2022-10-05T23:05:04.424Z,64.63
2022-10-05T23:07:49.827Z,64.83
2022-10-05T23:10:34.992Z,64.80
2022-10-05T23:13:20.339Z,64.83
2022-10-05T23:16:16.904Z,63.81
2022-10-05T23:19:01.968Z,64.89
2022-10-05T23:21:49.780Z,64.83
2022-10-05T23:24:34.761Z,64.38
2022-10-05T23:27:19.707Z,65.00
2022-10-05T23:30:06.820Z,64.84
2022-10-05T23:32:51.878Z,64.79
2022-10-05T23:35:37.228Z,64.84
2022-10-05T23:38:22.388Z,64.81
2022-10-05T23:41:08.052Z,64.85
2022-10-05T23:43:53.404Z,64.74
2022-10-05T23:46:38.627Z,64.78
2022-10-05T23:49:23.724Z,64.62
2022-10-05T23:52:09.001Z,64.78
2022-10-05T23:54:53.977Z,64.88
2022-10-05T23:57:38.841Z,64.79
